createdAt,value
2023-05-12T00:00:30.156Z,2.87
2023-05-12T00:05:39.064Z,3.00
2023-05-12T00:10:48.510Z,2.20
2023-05-12T00:15:57.854Z,2.43
2023-05-12T00:21:05.400Z,2.50
2023-05-12T00:26:19.181Z,2.77
2023-05-12T00:31:27.679Z,2.30
2023-05-12T00:36:35.829Z,2.80
2023-05-12T00:41:44.490Z,2.63
2023-05-12T00:46:52.918Z,2.37
2023-05-12T00:52:01.781Z,2.30
2023-05-12T00:57:10.340Z,2.57
2023-05-12T01:02:19.989Z,2.37
2023-05-12T01:07:31.549Z,2.40
2023-05-12T01:12:39.961Z,2.90
2023-05-12T01:17:50.749Z,2.90
2023-05-12T01:23:00.709Z,2.87
2023-05-12T01:28:10.982Z,2.53
2023-05-12T01:33:19.875Z,2.97
2023-05-12T01:38:28.270Z,6.37
2023-05-12T01:43:36.739Z,3.53
2023-05-12T01:48:44.748Z,2.50
2023-05-12T01:53:56.253Z,1.90
2023-05-12T01:59:05.788Z,4.50
2023-05-12T02:04:13.796Z,6.30
2023-05-12T02:09:23.698Z,5.93
2023-05-12T02:14:33.689Z,3.27
2023-05-12T02:19:42.302Z,4.60
2023-05-12T02:24:54.637Z,3.00
2023-05-12T02:30:02.892Z,3.43
2023-05-12T02:35:12.196Z,3.80
2023-05-12T02:40:21.682Z,3.97
2023-05-12T02:45:30.903Z,3.70
2023-05-12T02:50:39.987Z,3.57
2023-05-12T02:55:48.340Z,3.60
2023-05-12T03:01:09.365Z,5.47
2023-05-12T03:06:07.993Z,4.30
2023-05-12T03:11:15.888Z,3.40
2023-05-12T03:16:24.206Z,3.10
2023-05-12T03:21:32.168Z,3.30
2023-05-12T03:26:40.360Z,2.90
2023-05-12T03:31:48.632Z,2.33
2023-05-12T03:36:56.597Z,2.50
2023-05-12T03:42:06.987Z,2.50
2023-05-12T03:47:15.274Z,2.73
2023-05-12T03:52:24.045Z,2.50
2023-05-12T03:57:32.201Z,2.77
2023-05-12T04:02:40.854Z,2.60
2023-05-12T04:07:49.103Z,3.10
2023-05-12T04:12:57.116Z,3.30
2023-05-12T04:18:07.252Z,3.10
2023-05-12T04:23:16.296Z,2.60
2023-05-12T04:28:23.812Z,2.67
2023-05-12T04:33:31.580Z,3.60
2023-05-12T04:38:39.763Z,3.30
2023-05-12T04:49:03.228Z,3.37
2023-05-12T04:54:13.449Z,3.37
2023-05-12T04:59:22.472Z,3.00
2023-05-12T05:04:32.715Z,2.70
2023-05-12T05:09:42.892Z,2.50
2023-05-12T05:14:51.016Z,2.40
2023-05-12T05:19:59.914Z,2.47
2023-05-12T05:25:14.232Z,2.40
2023-05-12T05:30:23.730Z,2.30
2023-05-12T05:35:32.965Z,2.07
2023-05-12T05:40:52.949Z,1.63
2023-05-12T05:45:52.703Z,1.90
2023-05-12T05:51:01.735Z,2.30
2023-05-12T05:56:09.671Z,1.67
2023-05-12T06:01:18.964Z,1.70
2023-05-12T06:06:32.802Z,1.60
2023-05-12T06:11:41.218Z,1.90
2023-05-12T06:16:50.018Z,2.77
2023-05-12T06:21:58.980Z,2.20
2023-05-12T06:27:07.797Z,2.10
2023-05-12T06:32:15.923Z,1.77
2023-05-12T06:37:24.017Z,2.07
2023-05-12T06:42:32.586Z,2.10
2023-05-12T06:47:43.868Z,2.10
2023-05-12T06:52:54.279Z,1.80
2023-05-12T06:58:02.928Z,2.00
2023-05-12T07:03:11.960Z,1.87
2023-05-12T07:08:22.647Z,1.60
2023-05-12T07:13:30.586Z,1.50
2023-05-12T07:18:39.029Z,1.80
2023-05-12T07:23:49.372Z,1.60
2023-05-12T07:28:57.948Z,1.80
2023-05-12T07:34:06.602Z,1.67
2023-05-12T07:39:16.489Z,1.40
2023-05-12T07:44:25.269Z,1.70
2023-05-12T07:49:34.344Z,1.40
2023-05-12T07:54:43.909Z,1.50
2023-05-12T07:59:53.149Z,1.27
2023-05-12T08:05:02.231Z,1.33
2023-05-12T08:10:16.229Z,1.60
2023-05-12T08:15:24.877Z,1.53
2023-05-12T08:20:33.421Z,1.30
2023-05-12T08:25:44.877Z,1.40
2023-05-12T08:30:54.008Z,1.20
2023-05-12T08:36:03.809Z,1.20
2023-05-12T08:41:12.049Z,1.17
2023-05-12T08:46:22.516Z,0.90
2023-05-12T08:51:33.268Z,1.00
2023-05-12T09:01:56.855Z,0.97
2023-05-12T09:07:07.789Z,1.17
2023-05-12T09:12:18.611Z,1.10
2023-05-12T09:17:26.562Z,1.20
2023-05-12T09:22:36.049Z,1.20
2023-05-12T09:27:44.443Z,1.27
2023-05-12T09:32:56.594Z,1.20
2023-05-12T09:38:07.408Z,1.20
2023-05-12T09:43:15.724Z,1.10
2023-05-12T09:48:26.199Z,1.20
2023-05-12T09:53:36.896Z,1.20
2023-05-12T09:58:47.537Z,1.00
2023-05-12T10:03:58.072Z,1.20
2023-05-12T10:09:09.276Z,1.30
2023-05-12T10:14:19.409Z,1.50
2023-05-12T10:19:28.310Z,1.40
2023-05-12T10:24:37.715Z,1.47
2023-05-12T10:29:50.655Z,1.70
2023-05-12T10:35:02.253Z,1.73
2023-05-12T10:40:16.049Z,1.63
2023-05-12T10:45:25.606Z,1.83
2023-05-12T10:50:35.881Z,2.03
2023-05-12T10:55:48.282Z,2.30
2023-05-12T11:00:57.130Z,2.17
2023-05-12T11:06:10.823Z,2.20
2023-05-12T11:11:20.334Z,2.50
2023-05-12T11:16:29.153Z,2.00
2023-05-12T11:21:40.353Z,2.00
2023-05-12T11:26:54.145Z,1.50
2023-05-12T11:32:02.637Z,1.50
2023-05-12T11:37:11.269Z,1.30
2023-05-12T11:42:21.075Z,1.30
2023-05-12T11:47:30.600Z,1.20
2023-05-12T11:52:39.677Z,1.00
2023-05-12T11:57:52.847Z,1.33
2023-05-12T12:03:04.258Z,1.10
2023-05-12T12:08:15.125Z,1.10
2023-05-12T12:13:26.001Z,1.20
2023-05-12T12:18:33.836Z,1.23
2023-05-12T12:23:50.944Z,1.50
2023-05-12T12:28:53.777Z,1.50
2023-05-12T12:34:01.359Z,1.33
2023-05-12T12:39:09.854Z,1.10
2023-05-12T12:44:18.877Z,0.93
2023-05-12T12:49:27.758Z,1.00
2023-05-12T12:54:36.348Z,0.90
2023-05-12T12:59:45.788Z,0.93
2023-05-12T13:04:54.180Z,1.10
2023-05-12T13:10:02.256Z,1.00
2023-05-12T13:15:10.887Z,1.00
2023-05-12T13:20:19.518Z,1.30
2023-05-12T13:25:28.348Z,1.10
2023-05-12T13:30:37.789Z,1.03
2023-05-12T13:35:46.372Z,1.33
2023-05-12T13:40:55.181Z,1.60
2023-05-12T13:46:03.225Z,1.53
2023-05-12T13:51:12.187Z,1.60
2023-05-12T13:56:21.436Z,1.47
2023-05-12T14:01:30.009Z,1.30
2023-05-12T14:06:38.501Z,1.23
2023-05-12T14:11:46.727Z,1.37
2023-05-12T14:16:55.543Z,1.40
2023-05-12T14:22:12.467Z,1.43
2023-05-12T14:27:13.404Z,1.10
2023-05-12T14:32:22.177Z,1.07
2023-05-12T14:37:30.385Z,1.00
2023-05-12T14:42:43.268Z,1.00
2023-05-12T14:47:52.110Z,0.80
2023-05-12T14:53:00.487Z,0.80
2023-05-12T14:58:08.510Z,0.93
2023-05-12T15:03:16.881Z,1.00
2023-05-12T15:08:25.264Z,1.03
2023-05-12T15:13:33.465Z,0.90
2023-05-12T15:18:44.077Z,0.90
2023-05-12T15:23:52.032Z,1.10
2023-05-12T15:29:01.564Z,1.20
2023-05-12T15:34:09.858Z,1.10
2023-05-12T15:39:18.147Z,1.20
2023-05-12T15:44:26.324Z,0.87
2023-05-12T15:49:35.593Z,1.00
2023-05-12T15:54:44.736Z,1.10
2023-05-12T15:59:55.186Z,1.20
2023-05-12T16:05:05.273Z,1.10
2023-05-12T16:10:14.967Z,1.00
2023-05-12T16:15:24.445Z,0.80
2023-05-12T16:20:35.100Z,0.70
2023-05-12T16:25:44.798Z,0.90
2023-05-12T16:30:53.647Z,0.87
2023-05-12T16:36:03.065Z,0.93
2023-05-12T16:41:15.901Z,1.60
2023-05-12T16:46:25.377Z,1.10
2023-05-12T16:51:34.202Z,0.80
2023-05-12T16:56:43.729Z,0.90
2023-05-12T17:01:53.102Z,0.83
2023-05-12T17:07:02.458Z,1.00
2023-05-12T17:12:12.075Z,1.13
2023-05-12T17:17:20.195Z,1.60
2023-05-12T17:22:28.937Z,1.20
2023-05-12T17:27:37.713Z,1.30
2023-05-12T17:32:46.084Z,1.60
2023-05-12T17:37:56.122Z,1.97
2023-05-12T17:43:05.936Z,1.40
2023-05-12T17:48:14.386Z,1.60
2023-05-12T17:53:21.985Z,1.60
2023-05-12T17:58:30.199Z,1.40
2023-05-12T18:03:38.814Z,1.50
2023-05-12T18:08:47.296Z,1.60
2023-05-12T18:13:55.622Z,1.37
2023-05-12T18:19:05.163Z,1.60
2023-05-12T18:24:14.276Z,1.30
2023-05-12T18:29:22.987Z,1.10
2023-05-12T18:34:36.495Z,1.00
2023-05-12T18:39:45.206Z,0.83
2023-05-12T18:44:54.436Z,1.07
2023-05-12T18:50:02.663Z,0.90
2023-05-12T18:55:11.496Z,1.10
2023-05-12T19:00:21.674Z,0.90
2023-05-12T19:05:30.138Z,1.03
2023-05-12T19:10:39.887Z,1.00
2023-05-12T19:15:47.700Z,1.10
2023-05-12T19:20:54.950Z,1.00
2023-05-12T19:26:02.529Z,1.10
2023-05-12T19:31:11.789Z,1.00
2023-05-12T19:36:19.657Z,0.60
2023-05-12T19:41:29.191Z,0.83
2023-05-12T19:46:38.293Z,0.80
2023-05-12T19:51:47.595Z,0.70
2023-05-12T19:56:56.518Z,1.10
2023-05-12T20:02:05.178Z,1.30
2023-05-12T20:07:19.033Z,1.10
2023-05-12T20:12:31.876Z,1.20
2023-05-12T20:17:40.116Z,1.10
2023-05-12T20:22:48.912Z,1.00
2023-05-12T20:28:01.177Z,1.20
2023-05-12T20:33:12.365Z,1.20
2023-05-12T20:38:20.384Z,1.30
2023-05-12T20:43:28.200Z,1.20
2023-05-12T20:48:37.141Z,0.93
2023-05-12T20:53:46.023Z,0.90
2023-05-12T20:58:55.414Z,0.90
2023-05-12T21:04:03.939Z,1.10
2023-05-12T21:09:13.500Z,0.80
2023-05-12T21:14:27.574Z,0.70
2023-05-12T21:19:38.078Z,0.80
2023-05-12T21:24:46.767Z,0.77
2023-05-12T21:29:54.368Z,0.80
2023-05-12T21:35:02.455Z,0.90
2023-05-12T21:40:12.574Z,1.00
2023-05-12T21:45:22.114Z,0.80
2023-05-12T21:50:30.251Z,0.63
2023-05-12T21:55:38.845Z,0.63
2023-05-12T22:00:47.417Z,0.70
2023-05-12T22:05:57.974Z,0.70
2023-05-12T22:11:06.052Z,0.60
2023-05-12T22:16:14.332Z,0.70
2023-05-12T22:21:22.549Z,0.50
2023-05-12T22:26:30.870Z,0.60
2023-05-12T22:31:39.003Z,0.70
2023-05-12T22:36:48.235Z,0.60
2023-05-12T22:41:57.326Z,0.60
2023-05-12T22:47:05.392Z,0.73
2023-05-12T22:52:14.084Z,0.87
2023-05-12T22:57:28.391Z,0.70
2023-05-12T23:02:38.731Z,0.63
2023-05-12T23:07:47.278Z,0.60
2023-05-12T23:12:55.711Z,0.63
2023-05-12T23:18:03.881Z,0.50
2023-05-12T23:23:12.074Z,0.60
2023-05-12T23:28:19.532Z,0.53
2023-05-12T23:33:27.713Z,0.60
2023-05-12T23:38:35.560Z,0.60
2023-05-12T23:43:44.692Z,0.60
2023-05-12T23:48:52.820Z,0.63
2023-05-12T23:54:00.924Z,0.80
2023-05-12T23:59:09.546Z,0.70
